sensor_id;sensor_type;location;lat;lon;timestamp;pressure;altitude;pressure_sealevel;temperature;humidity
2178;BME280;1095;50.992;6.798;2024-01-30T00:01:09;102227.97;;;6.40;100.00
2178;BME280;1095;50.992;6.798;2024-01-30T00:03:40;102230.91;;;6.33;100.00
2178;BME280;1095;50.992;6.798;2024-01-30T00:06:11;102223.19;;;6.32;100.00
2178;BME280;1095;50.992;6.798;2024-01-30T00:08:42;102220.13;;;6.25;100.00
2178;BME280;1095;50.992;6.798;2024-01-30T00:11:20;102209.16;;;6.20;100.00
2178;BME280;1095;50.992;6.798;2024-01-30T00:13:51;102218.63;;;6.21;100.00
2178;BME280;1095;50.992;6.798;2024-01-30T00:16:23;102213.59;;;6.18;100.00
2178;BME280;1095;50.992;6.798;2024-01-30T00:18:55;102216.84;;;6.22;100.00
2178;BME280;1095;50.992;6.798;2024-01-30T00:21:22;102216.50;;;6.28;100.00
2178;BME280;1095;50.992;6.798;2024-01-30T00:24:16;102198.41;;;6.26;100.00
2178;BME280;1095;50.992;6.798;2024-01-30T00:30:25;102206.72;;;6.17;100.00
2178;BME280;1095;50.992;6.798;2024-01-30T00:32:54;102209.41;;;6.16;100.00
2178;BME280;1095;50.992;6.798;2024-01-30T00:35:20;102212.22;;;6.13;100.00
2178;BME280;1095;50.992;6.798;2024-01-30T00:37:48;102215.84;;;6.10;100.00
2178;BME280;1095;50.992;6.798;2024-01-30T00:40:17;102216.94;;;6.06;100.00
2178;BME280;1095;50.992;6.798;2024-01-30T00:42:44;102213.59;;;6.04;100.00
2178;BME280;1095;50.992;6.798;2024-01-30T00:45:14;102207.38;;;6.07;100.00
2178;BME280;1095;50.992;6.798;2024-01-30T00:47:41;102212.66;;;6.05;100.00
2178;BME280;1095;50.992;6.798;2024-01-30T00:50:09;102204.94;;;6.04;100.00
2178;BME280;1095;50.992;6.798;2024-01-30T00:52:36;102205.22;;;5.99;100.00
2178;BME280;1095;50.992;6.798;2024-01-30T00:55:05;102202.59;;;5.99;100.00
2178;BME280;1095;50.992;6.798;2024-01-30T00:57:31;102200.94;;;5.98;100.00
2178;BME280;1095;50.992;6.798;2024-01-30T00:59:58;102197.09;;;5.89;100.00
2178;BME280;1095;50.992;6.798;2024-01-30T01:02:25;102202.03;;;5.94;100.00
2178;BME280;1095;50.992;6.798;2024-01-30T01:04:51;102206.31;;;5.95;100.00
2178;BME280;1095;50.992;6.798;2024-01-30T01:07:19;102191.06;;;5.89;100.00
2178;BME280;1095;50.992;6.798;2024-01-30T01:09:46;102200.44;;;5.91;100.00
2178;BME280;1095;50.992;6.798;2024-01-30T01:12:13;102204.94;;;5.88;100.00
2178;BME280;1095;50.992;6.798;2024-01-30T01:14:39;102202.28;;;5.89;100.00
2178;BME280;1095;50.992;6.798;2024-01-30T01:17:06;102205.13;;;5.85;100.00
2178;BME280;1095;50.992;6.798;2024-01-30T01:19:32;102201.69;;;5.84;100.00
2178;BME280;1095;50.992;6.798;2024-01-30T01:21:59;102205.13;;;5.85;100.00
2178;BME280;1095;50.992;6.798;2024-01-30T01:24:27;102212.81;;;5.86;100.00
2178;BME280;1095;50.992;6.798;2024-01-30T01:26:54;102202.97;;;5.93;100.00
2178;BME280;1095;50.992;6.798;2024-01-30T01:29:21;102201.59;;;5.86;100.00
2178;BME280;1095;50.992;6.798;2024-01-30T01:31:53;102207.06;;;5.81;100.00
2178;BME280;1095;50.992;6.798;2024-01-30T01:34:21;102210.75;;;5.77;100.00
2178;BME280;1095;50.992;6.798;2024-01-30T01:36:48;102198.00;;;5.73;100.00
2178;BME280;1095;50.992;6.798;2024-01-30T01:39:15;102210.34;;;5.69;100.00
2178;BME280;1095;50.992;6.798;2024-01-30T01:41:43;102200.16;;;5.66;100.00
2178;BME280;1095;50.992;6.798;2024-01-30T01:44:10;102200.41;;;5.61;100.00
2178;BME280;1095;50.992;6.798;2024-01-30T01:46:36;102192.78;;;5.58;100.00
2178;BME280;1095;50.992;6.798;2024-01-30T01:49:05;102199.81;;;5.56;100.00
2178;BME280;1095;50.992;6.798;2024-01-30T01:51:34;102198.16;;;5.55;100.00
2178;BME280;1095;50.992;6.798;2024-01-30T01:54:04;102201.66;;;5.54;100.00
2178;BME280;1095;50.992;6.798;2024-01-30T01:56:31;102197.31;;;5.55;100.00
2178;BME280;1095;50.992;6.798;2024-01-30T01:59:06;102196.97;;;5.61;100.00
2178;BME280;1095;50.992;6.798;2024-01-30T02:01:33;102201.31;;;5.60;100.00
2178;BME280;1095;50.992;6.798;2024-01-30T02:04:00;102202.25;;;5.59;100.00
2178;BME280;1095;50.992;6.798;2024-01-30T02:06:27;102199.66;;;5.59;100.00
2178;BME280;1095;50.992;6.798;2024-01-30T02:08:54;102202.50;;;5.55;100.00
2178;BME280;1095;50.992;6.798;2024-01-30T02:11:21;102198.16;;;5.55;100.00
2178;BME280;1095;50.992;6.798;2024-01-30T02:13:48;102189.25;;;5.59;100.00
2178;BME280;1095;50.992;6.798;2024-01-30T02:16:17;102184.41;;;5.53;100.00
2178;BME280;1095;50.992;6.798;2024-01-30T02:18:43;102191.84;;;5.59;100.00
2178;BME280;1095;50.992;6.798;2024-01-30T02:21:14;102188.16;;;5.63;100.00
2178;BME280;1095;50.992;6.798;2024-01-30T02:23:41;102190.28;;;5.57;100.00
2178;BME280;1095;50.992;6.798;2024-01-30T02:26:09;102184.50;;;5.52;100.00
2178;BME280;1095;50.992;6.798;2024-01-30T02:28:36;102182.56;;;5.55;100.00
2178;BME280;1095;50.992;6.798;2024-01-30T02:31:03;102178.38;;;5.53;100.00
2178;BME280;1095;50.992;6.798;2024-01-30T02:33:30;102188.25;;;5.62;100.00
2178;BME280;1095;50.992;6.798;2024-01-30T02:35:57;102180.56;;;5.60;100.00
2178;BME280;1095;50.992;6.798;2024-01-30T02:38:25;102175.84;;;5.67;100.00
2178;BME280;1095;50.992;6.798;2024-01-30T02:40:55;102167.31;;;5.65;100.00
2178;BME280;1095;50.992;6.798;2024-01-30T02:43:22;102169.06;;;5.64;100.00
2178;BME280;1095;50.992;6.798;2024-01-30T02:45:48;102168.16;;;5.65;100.00
2178;BME280;1095;50.992;6.798;2024-01-30T02:48:15;102160.91;;;5.71;100.00
2178;BME280;1095;50.992;6.798;2024-01-30T02:50:42;102139.09;;;5.59;100.00
2178;BME280;1095;50.992;6.798;2024-01-30T02:53:09;102159.72;;;5.76;100.00
2178;BME280;1095;50.992;6.798;2024-01-30T02:55:37;102168.00;;;5.83;100.00
2178;BME280;1095;50.992;6.798;2024-01-30T02:58:03;102153.84;;;5.73;100.00
2178;BME280;1095;50.992;6.798;2024-01-30T03:00:30;102147.00;;;5.72;100.00
2178;BME280;1095;50.992;6.798;2024-01-30T03:02:57;102151.84;;;5.78;100.00
2178;BME280;1095;50.992;6.798;2024-01-30T03:05:23;102152.59;;;5.80;100.00
2178;BME280;1095;50.992;6.798;2024-01-30T03:07:50;102149.25;;;5.78;100.00
2178;BME280;1095;50.992;6.798;2024-01-30T03:10:17;102146.91;;;5.73;100.00
2178;BME280;1095;50.992;6.798;2024-01-30T03:12:45;102141.13;;;5.68;100.00
2178;BME280;1095;50.992;6.798;2024-01-30T03:15:12;102136.91;;;5.67;100.00
2178;BME280;1095;50.992;6.798;2024-01-30T03:17:38;102144.84;;;5.64;100.00
2178;BME280;1095;50.992;6.798;2024-01-30T03:20:06;102145.50;;;5.67;100.00
2178;BME280;1095;50.992;6.798;2024-01-30T03:22:32;102136.78;;;5.68;100.00
2178;BME280;1095;50.992;6.798;2024-01-30T03:24:59;102147.06;;;5.70;100.00
2178;BME280;1095;50.992;6.798;2024-01-30T03:27:26;102140.97;;;5.71;100.00
2178;BME280;1095;50.992;6.798;2024-01-30T03:29:54;102145.97;;;5.74;100.00
2178;BME280;1095;50.992;6.798;2024-01-30T03:32:20;102143.13;;;5.79;100.00
2178;BME280;1095;50.992;6.798;2024-01-30T03:34:47;102138.00;;;5.77;100.00
2178;BME280;1095;50.992;6.798;2024-01-30T03:37:14;102133.25;;;5.70;100.00
2178;BME280;1095;50.992;6.798;2024-01-30T03:39:40;102132.25;;;5.72;100.00
2178;BME280;1095;50.992;6.798;2024-01-30T03:42:07;102136.44;;;5.75;100.00
2178;BME280;1095;50.992;6.798;2024-01-30T03:44:33;102134.94;;;5.71;100.00
2178;BME280;1095;50.992;6.798;2024-01-30T03:47:01;102133.09;;;5.73;100.00
2178;BME280;1095;50.992;6.798;2024-01-30T03:49:28;102132.25;;;5.72;100.00
2178;BME280;1095;50.992;6.798;2024-01-30T03:51:55;102125.19;;;5.74;100.00
2178;BME280;1095;50.992;6.798;2024-01-30T03:54:21;102122.53;;;5.76;100.00
2178;BME280;1095;50.992;6.798;2024-01-30T03:56:48;102118.34;;;5.73;100.00
2178;BME280;1095;50.992;6.798;2024-01-30T03:59:15;102129.56;;;5.74;100.00
2178;BME280;1095;50.992;6.798;2024-01-30T04:01:42;102128.72;;;5.73;100.00
2178;BME280;1095;50.992;6.798;2024-01-30T04:04:10;102113.13;;;5.73;100.00
2178;BME280;1095;50.992;6.798;2024-01-30T04:06:37;102124.19;;;5.77;100.00
2178;BME280;1095;50.992;6.798;2024-01-30T04:09:04;102118.16;;;5.76;100.00
2178;BME280;1095;50.992;6.798;2024-01-30T04:11:30;102121.78;;;5.74;100.00
2178;BME280;1095;50.992;6.798;2024-01-30T04:13:57;102122.03;;;5.69;100.00
2178;BME280;1095;50.992;6.798;2024-01-30T04:16:23;102127.88;;;5.73;100.00
2178;BME280;1095;50.992;6.798;2024-01-30T04:18:51;102121.94;;;5.71;100.00
2178;BME280;1095;50.992;6.798;2024-01-30T04:21:20;102106.84;;;5.63;100.00
2178;BME280;1095;50.992;6.798;2024-01-30T04:23:47;102120.56;;;5.65;100.00
2178;BME280;1095;50.992;6.798;2024-01-30T04:26:13;102119.53;;;5.67;100.00
2178;BME280;1095;50.992;6.798;2024-01-30T04:28:41;102122.13;;;5.67;100.00
2178;BME280;1095;50.992;6.798;2024-01-30T04:31:30;102121.56;;;5.62;100.00
2178;BME280;1095;50.992;6.798;2024-01-30T04:33:56;102124.53;;;5.71;100.00
2178;BME280;1095;50.992;6.798;2024-01-30T04:36:24;102121.03;;;5.72;100.00
2178;BME280;1095;50.992;6.798;2024-01-30T04:38:51;102132.16;;;5.74;100.00
2178;BME280;1095;50.992;6.798;2024-01-30T04:41:17;102124.38;;;5.74;100.00
2178;BME280;1095;50.992;6.798;2024-01-30T04:43:44;102124.53;;;5.71;100.00
2178;BME280;1095;50.992;6.798;2024-01-30T04:46:13;102121.19;;;5.68;100.00
2178;BME280;1095;50.992;6.798;2024-01-30T04:48:39;102119.34;;;5.71;100.00
2178;BME280;1095;50.992;6.798;2024-01-30T04:51:08;102116.66;;;5.72;100.00
2178;BME280;1095;50.992;6.798;2024-01-30T04:53:36;102116.22;;;5.80;100.00
2178;BME280;1095;50.992;6.798;2024-01-30T04:56:05;102105.19;;;5.76;100.00
2178;BME280;1095;50.992;6.798;2024-01-30T04:58:33;102107.78;;;5.76;100.00
2178;BME280;1095;50.992;6.798;2024-01-30T05:01:02;102107.50;;;5.81;100.00
2178;BME280;1095;50.992;6.798;2024-01-30T05:03:33;102105.91;;;5.78;100.00
2178;BME280;1095;50.992;6.798;2024-01-30T05:06:02;102104.81;;;5.82;100.00
2178;BME280;1095;50.992;6.798;2024-01-30T05:08:28;102110.75;;;5.84;100.00
2178;BME280;1095;50.992;6.798;2024-01-30T05:11:00;102108.00;;;5.87;100.00
2178;BME280;1095;50.992;6.798;2024-01-30T05:13:29;102111.28;;;5.91;100.00
2178;BME280;1095;50.992;6.798;2024-01-30T05:15:55;102106.16;;;5.89;100.00
2178;BME280;1095;50.992;6.798;2024-01-30T05:18:22;102105.25;;;5.90;100.00
2178;BME280;1095;50.992;6.798;2024-01-30T05:20:51;102107.31;;;5.84;100.00
2178;BME280;1095;50.992;6.798;2024-01-30T05:23:18;102107.31;;;5.84;100.00
2178;BME280;1095;50.992;6.798;2024-01-30T05:25:45;102113.13;;;5.89;100.00
2178;BME280;1095;50.992;6.798;2024-01-30T05:28:13;102094.53;;;5.81;100.00
2178;BME280;1095;50.992;6.798;2024-01-30T05:30:39;102100.91;;;5.75;100.00
2178;BME280;1095;50.992;6.798;2024-01-30T05:33:06;102099.31;;;5.73;100.00
2178;BME280;1095;50.992;6.798;2024-01-30T05:35:32;102093.56;;;5.67;100.00
2178;BME280;1095;50.992;6.798;2024-01-30T05:37:59;102099.69;;;5.66;100.00
2178;BME280;1095;50.992;6.798;2024-01-30T05:40:26;102097.28;;;5.63;100.00
2178;BME280;1095;50.992;6.798;2024-01-30T05:42:52;102096.69;;;5.58;100.00
2178;BME280;1095;50.992;6.798;2024-01-30T05:45:20;102092.16;;;5.62;100.00
2178;BME280;1095;50.992;6.798;2024-01-30T05:47:48;102097.44;;;5.60;100.00
2178;BME280;1095;50.992;6.798;2024-01-30T05:50:15;102095.59;;;5.62;100.00
2178;BME280;1095;50.992;6.798;2024-01-30T05:52:41;102101.72;;;5.61;100.00
2178;BME280;1095;50.992;6.798;2024-01-30T05:55:08;102101.22;;;5.55;100.00
2178;BME280;1095;50.992;6.798;2024-01-30T05:57:35;102105.41;;;5.57;100.00
2178;BME280;1095;50.992;6.798;2024-01-30T06:00:03;102102.81;;;5.57;100.00
2178;BME280;1095;50.992;6.798;2024-01-30T06:02:31;102105.25;;;5.60;100.00
2178;BME280;1095;50.992;6.798;2024-01-30T06:04:58;102103.94;;;5.67;100.00
2178;BME280;1095;50.992;6.798;2024-01-30T06:07:25;102097.28;;;5.63;100.00
2178;BME280;1095;50.992;6.798;2024-01-30T06:09:51;102088.47;;;5.66;100.00
2178;BME280;1095;50.992;6.798;2024-01-30T06:12:18;102095.13;;;5.70;100.00
2178;BME280;1095;50.992;6.798;2024-01-30T06:14:45;102089.84;;;5.72;100.00
2178;BME280;1095;50.992;6.798;2024-01-30T06:17:13;102094.13;;;5.73;100.00
2178;BME280;1095;50.992;6.798;2024-01-30T06:19:40;102094.13;;;5.73;100.00
2178;BME280;1095;50.992;6.798;2024-01-30T06:22:07;102081.22;;;5.71;100.00
2178;BME280;1095;50.992;6.798;2024-01-30T06:24:34;102082.34;;;5.67;100.00
2178;BME280;1095;50.992;6.798;2024-01-30T06:27:00;102081.31;;;5.70;100.00
2178;BME280;1095;50.992;6.798;2024-01-30T06:29:35;102076.78;;;5.73;100.00
2178;BME280;1095;50.992;6.798;2024-01-30T06:32:07;102075.09;;;5.72;100.00
2178;BME280;1095;50.992;6.798;2024-01-30T06:34:42;102084.13;;;5.81;100.00
2178;BME280;1095;50.992;6.798;2024-01-30T07:10:58;102086.25;;;6.04;100.00
2178;BME280;1095;50.992;6.798;2024-01-30T07:13:28;102105.44;;;6.16;100.00
2178;BME280;1095;50.992;6.798;2024-01-30T07:15:55;102082.72;;;6.05;100.00
2178;BME280;1095;50.992;6.798;2024-01-30T07:18:23;102091.44;;;6.18;100.00
2178;BME280;1095;50.992;6.798;2024-01-30T07:20:51;102092.56;;;6.14;100.00
2178;BME280;1095;50.992;6.798;2024-01-30T07:23:18;102097.13;;;6.11;100.00
2178;BME280;1095;50.992;6.798;2024-01-30T07:25:45;102098.41;;;6.18;100.00
2178;BME280;1095;50.992;6.798;2024-01-30T07:28:14;102100.16;;;6.17;100.00
2178;BME280;1095;50.992;6.798;2024-01-30T07:30:42;102100.91;;;6.19;100.00
2178;BME280;1095;50.992;6.798;2024-01-30T07:33:09;102107.69;;;6.22;100.00
2178;BME280;1095;50.992;6.798;2024-01-30T07:35:36;102101.38;;;6.26;100.00
2178;BME280;1095;50.992;6.798;2024-01-30T07:38:04;102101.28;;;6.27;100.00
2178;BME280;1095;50.992;6.798;2024-01-30T07:40:31;102093.66;;;6.24;100.00
2178;BME280;1095;50.992;6.798;2024-01-30T07:42:58;102107.78;;;6.35;100.00
2178;BME280;1095;50.992;6.798;2024-01-30T07:45:26;102089.69;;;6.33;100.00
2178;BME280;1095;50.992;6.798;2024-01-30T07:47:57;102091.44;;;6.32;100.00
2178;BME280;1095;50.992;6.798;2024-01-30T07:50:25;102092.28;;;6.33;100.00
2178;BME280;1095;50.992;6.798;2024-01-30T07:52:51;102097.84;;;6.27;100.00
2178;BME280;1095;50.992;6.798;2024-01-30T07:55:21;102112.91;;;6.36;100.00
2178;BME280;1095;50.992;6.798;2024-01-30T07:57:51;102118.38;;;6.31;100.00
2178;BME280;1095;50.992;6.798;2024-01-30T08:00:18;102114.00;;;6.32;100.00
2178;BME280;1095;50.992;6.798;2024-01-30T08:02:45;102115.41;;;6.23;100.00
2178;BME280;1095;50.992;6.798;2024-01-30T08:05:12;102113.72;;;6.22;100.00
2178;BME280;1095;50.992;6.798;2024-01-30T08:07:40;102128.03;;;6.29;100.00
2178;BME280;1095;50.992;6.798;2024-01-30T08:10:07;102121.53;;;6.22;100.00
2178;BME280;1095;50.992;6.798;2024-01-30T08:12:36;102127.56;;;6.23;100.00
2178;BME280;1095;50.992;6.798;2024-01-30T08:15:03;102117.34;;;6.20;100.00
2178;BME280;1095;50.992;6.798;2024-01-30T08:17:30;102107.41;;;6.26;100.00
2178;BME280;1095;50.992;6.798;2024-01-30T08:19:57;102119.47;;;6.27;100.00
2178;BME280;1095;50.992;6.798;2024-01-30T08:22:23;102100.53;;;6.25;100.00
2178;BME280;1095;50.992;6.798;2024-01-30T08:24:50;102109.47;;;6.36;100.00
2178;BME280;1095;50.992;6.798;2024-01-30T08:27:17;102108.91;;;6.45;100.00
2178;BME280;1095;50.992;6.798;2024-01-30T08:29:45;102119.88;;;6.50;100.00
2178;BME280;1095;50.992;6.798;2024-01-30T08:32:12;102114.41;;;6.54;100.00
2178;BME280;1095;50.992;6.798;2024-01-30T08:34:38;102121.00;;;6.60;100.00
2178;BME280;1095;50.992;6.798;2024-01-30T08:37:05;102126.44;;;6.70;100.00
2178;BME280;1095;50.992;6.798;2024-01-30T08:39:32;102117.06;;;6.67;100.00
2178;BME280;1095;50.992;6.798;2024-01-30T08:41:58;102122.53;;;6.77;100.00
2178;BME280;1095;50.992;6.798;2024-01-30T08:44:25;102127.34;;;6.83;100.00
2178;BME280;1095;50.992;6.798;2024-01-30T08:46:54;102116.13;;;6.82;100.00
2178;BME280;1095;50.992;6.798;2024-01-30T08:49:26;102113.50;;;6.82;100.00
2178;BME280;1095;50.992;6.798;2024-01-30T08:51:53;102121.09;;;6.99;100.00
2178;BME280;1095;50.992;6.798;2024-01-30T08:54:19;102118.03;;;7.07;100.00
2178;BME280;1095;50.992;6.798;2024-01-30T08:56:46;102127.94;;;7.15;100.00
2178;BME280;1095;50.992;6.798;2024-01-30T08:59:13;102123.25;;;7.20;100.00
2178;BME280;1095;50.992;6.798;2024-01-30T09:01:39;102130.28;;;7.32;100.00
2178;BME280;1095;50.992;6.798;2024-01-30T09:04:07;102130.50;;;7.29;100.00
2178;BME280;1095;50.992;6.798;2024-01-30T09:06:37;102111.53;;;7.27;100.00
2178;BME280;1095;50.992;6.798;2024-01-30T09:09:04;102125.94;;;7.32;100.00
2178;BME280;1095;50.992;6.798;2024-01-30T09:11:31;102125.78;;;7.48;100.00
2178;BME280;1095;50.992;6.798;2024-01-30T09:13:58;102130.25;;;7.46;100.00
2178;BME280;1095;50.992;6.798;2024-01-30T09:16:24;102130.41;;;7.70;100.00
2178;BME280;1095;50.992;6.798;2024-01-30T09:18:51;102134.97;;;7.66;100.00
2178;BME280;1095;50.992;6.798;2024-01-30T09:21:19;102137.53;;;7.81;100.00
2178;BME280;1095;50.992;6.798;2024-01-30T09:23:45;102142.63;;;7.82;100.00
2178;BME280;1095;50.992;6.798;2024-01-30T09:26:12;102145.03;;;7.85;100.00
2178;BME280;1095;50.992;6.798;2024-01-30T09:28:39;102141.00;;;7.94;100.00
2178;BME280;1095;50.992;6.798;2024-01-30T09:31:10;102135.88;;;7.92;100.00
2178;BME280;1095;50.992;6.798;2024-01-30T09:33:36;102138.19;;;7.97;100.00
2178;BME280;1095;50.992;6.798;2024-01-30T09:36:04;102140.59;;;8.00;100.00
2178;BME280;1095;50.992;6.798;2024-01-30T09:38:32;102147.03;;;8.07;100.00
2178;BME280;1095;50.992;6.798;2024-01-30T09:41:03;102153.09;;;8.20;100.00
2178;BME280;1095;50.992;6.798;2024-01-30T09:43:34;102150.50;;;8.20;100.00
2178;BME280;1095;50.992;6.798;2024-01-30T09:46:02;102151.06;;;8.38;100.00
2178;BME280;1095;50.992;6.798;2024-01-30T09:48:30;102153.22;;;8.31;100.00
2178;BME280;1095;50.992;6.798;2024-01-30T09:50:57;102153.66;;;8.38;100.00
2178;BME280;1095;50.992;6.798;2024-01-30T09:53:25;102142.09;;;8.42;100.00
2178;BME280;1095;50.992;6.798;2024-01-30T09:55:53;102141.97;;;8.44;100.00
2178;BME280;1095;50.992;6.798;2024-01-30T09:58:20;102141.25;;;8.42;100.00
2178;BME280;1095;50.992;6.798;2024-01-30T10:00:48;102131.22;;;8.48;100.00
2178;BME280;1095;50.992;6.798;2024-01-30T10:03:14;102147.19;;;8.44;100.00
2178;BME280;1095;50.992;6.798;2024-01-30T10:05:41;102153.00;;;8.60;100.00
2178;BME280;1095;50.992;6.798;2024-01-30T10:08:12;102144.56;;;8.56;100.00
2178;BME280;1095;50.992;6.798;2024-01-30T10:10:39;102150.72;;;8.68;100.00
2178;BME280;1095;50.992;6.798;2024-01-30T10:13:07;102136.72;;;8.56;100.00
2178;BME280;1095;50.992;6.798;2024-01-30T10:15:33;102144.88;;;8.64;100.00
2178;BME280;1095;50.992;6.798;2024-01-30T10:18:01;102147.66;;;8.87;100.00
2178;BME280;1095;50.992;6.798;2024-01-30T10:20:28;102149.94;;;8.91;100.00
2178;BME280;1095;50.992;6.798;2024-01-30T10:22:54;102142.31;;;8.88;100.00
2178;BME280;1095;50.992;6.798;2024-01-30T10:25:21;102133.66;;;8.88;100.00
2178;BME280;1095;50.992;6.798;2024-01-30T10:27:54;102125.94;;;8.86;100.00
2178;BME280;1095;50.992;6.798;2024-01-30T10:30:22;102131.38;;;8.83;100.00
2178;BME280;1095;50.992;6.798;2024-01-30T10:32:49;102139.59;;;8.90;100.00
2178;BME280;1095;50.992;6.798;2024-01-30T10:35:17;102132.00;;;8.87;100.00
2178;BME280;1095;50.992;6.798;2024-01-30T10:37:47;102133.97;;;8.96;100.00
2178;BME280;1095;50.992;6.798;2024-01-30T10:40:14;102141.84;;;9.07;100.00
2178;BME280;1095;50.992;6.798;2024-01-30T10:42:45;102142.31;;;9.25;100.00
2178;BME280;1095;50.992;6.798;2024-01-30T10:45:13;102137.25;;;9.35;100.00
2178;BME280;1095;50.992;6.798;2024-01-30T10:47:45;102133.81;;;9.34;100.00
2178;BME280;1095;50.992;6.798;2024-01-30T10:50:15;102139.06;;;9.45;100.00
2178;BME280;1095;50.992;6.798;2024-01-30T10:52:42;102133.66;;;9.59;100.00
2178;BME280;1095;50.992;6.798;2024-01-30T10:55:09;102131.31;;;9.68;100.00
2178;BME280;1095;50.992;6.798;2024-01-30T10:57:37;102135.03;;;9.76;100.00
2178;BME280;1095;50.992;6.798;2024-01-30T11:00:16;102121.50;;;9.82;100.00
2178;BME280;1095;50.992;6.798;2024-01-30T11:02:49;102120.91;;;9.79;100.00
2178;BME280;1095;50.992;6.798;2024-01-30T11:05:23;102108.22;;;9.85;100.00
2178;BME280;1095;50.992;6.798;2024-01-30T11:07:50;102112.38;;;9.88;100.00
2178;BME280;1095;50.992;6.798;2024-01-30T11:10:17;102108.09;;;9.98;100.00
2178;BME280;1095;50.992;6.798;2024-01-30T11:12:46;102107.41;;;10.07;100.00
2178;BME280;1095;50.992;6.798;2024-01-30T11:15:13;102103.59;;;10.11;100.00
2178;BME280;1095;50.992;6.798;2024-01-30T11:17:41;102099.81;;;10.15;100.00
2178;BME280;1095;50.992;6.798;2024-01-30T11:20:14;102105.22;;;10.25;100.00
2178;BME280;1095;50.992;6.798;2024-01-30T11:22:42;102099.38;;;10.33;100.00
2178;BME280;1095;50.992;6.798;2024-01-30T11:25:13;102104.72;;;10.42;100.00
2178;BME280;1095;50.992;6.798;2024-01-30T11:27:46;102091.91;;;10.39;100.00
2178;BME280;1095;50.992;6.798;2024-01-30T11:30:25;102093.19;;;10.45;99.58
2178;BME280;1095;50.992;6.798;2024-01-30T11:32:59;102094.13;;;10.55;99.41
2178;BME280;1095;50.992;6.798;2024-01-30T11:35:29;102097.81;;;10.52;99.74
2178;BME280;1095;50.992;6.798;2024-01-30T11:37:57;102089.38;;;10.60;99.02
2178;BME280;1095;50.992;6.798;2024-01-30T11:40:26;102094.59;;;10.82;99.01
2178;BME280;1095;50.992;6.798;2024-01-30T11:42:54;102085.78;;;10.72;98.67
2178;BME280;1095;50.992;6.798;2024-01-30T11:45:21;102085.09;;;10.70;97.78
2178;BME280;1095;50.992;6.798;2024-01-30T11:47:48;102088.53;;;10.71;97.59
2178;BME280;1095;50.992;6.798;2024-01-30T11:50:15;102085.38;;;10.88;97.70
2178;BME280;1095;50.992;6.798;2024-01-30T11:52:43;102085.78;;;10.72;97.65
2178;BME280;1095;50.992;6.798;2024-01-30T11:55:10;102092.91;;;10.81;98.26
2178;BME280;1095;50.992;6.798;2024-01-30T11:57:37;102097.50;;;11.00;98.15
2178;BME280;1095;50.992;6.798;2024-01-30T12:00:13;102088.69;;;11.01;98.00
2178;BME280;1095;50.992;6.798;2024-01-30T12:02:41;102098.34;;;10.89;97.98
2178;BME280;1095;50.992;6.798;2024-01-30T12:05:08;102092.84;;;11.04;97.72
2178;BME280;1095;50.992;6.798;2024-01-30T12:07:39;102092.75;;;10.94;97.54
2178;BME280;1095;50.992;6.798;2024-01-30T12:10:08;102097.38;;;11.02;97.83
2178;BME280;1095;50.992;6.798;2024-01-30T12:12:35;102099.94;;;11.24;97.32
2178;BME280;1095;50.992;6.798;2024-01-30T12:15:02;102089.00;;;11.19;96.42
2178;BME280;1095;50.992;6.798;2024-01-30T12:17:30;102086.13;;;11.22;96.68
2178;BME280;1095;50.992;6.798;2024-01-30T12:20:03;102078.97;;;11.24;96.79
2178;BME280;1095;50.992;6.798;2024-01-30T12:22:33;102099.13;;;11.23;96.93
2178;BME280;1095;50.992;6.798;2024-01-30T12:25:00;102101.13;;;11.31;96.82
2178;BME280;1095;50.992;6.798;2024-01-30T12:27:28;102097.41;;;11.34;96.52
2178;BME280;1095;50.992;6.798;2024-01-30T12:32:22;102095.34;;;11.37;95.67
2178;BME280;1095;50.992;6.798;2024-01-30T12:34:49;102088.44;;;11.36;95.93
2178;BME280;1095;50.992;6.798;2024-01-30T12:37:16;102097.06;;;11.27;96.03
2178;BME280;1095;50.992;6.798;2024-01-30T12:39:47;102093.53;;;11.17;96.70
2178;BME280;1095;50.992;6.798;2024-01-30T12:42:14;102087.47;;;11.16;97.04
2178;BME280;1095;50.992;6.798;2024-01-30T12:44:42;102097.44;;;11.22;97.98
2178;BME280;1095;50.992;6.798;2024-01-30T12:47:09;102095.66;;;11.23;98.36
2178;BME280;1095;50.992;6.798;2024-01-30T12:49:36;102096.97;;;11.28;98.87
2178;BME280;1095;50.992;6.798;2024-01-30T12:52:03;102100.03;;;11.34;99.18
2178;BME280;1095;50.992;6.798;2024-01-30T12:54:30;102108.91;;;11.42;99.50
2178;BME280;1095;50.992;6.798;2024-01-30T12:56:56;102105.03;;;11.57;99.87
2178;BME280;1095;50.992;6.798;2024-01-30T12:59:23;102114.22;;;11.84;99.63
2178;BME280;1095;50.992;6.798;2024-01-30T13:01:51;102107.94;;;11.96;99.03
2178;BME280;1095;50.992;6.798;2024-01-30T13:04:18;102101.28;;;11.92;98.71
2178;BME280;1095;50.992;6.798;2024-01-30T13:06:45;102104.03;;;11.90;98.46
2178;BME280;1095;50.992;6.798;2024-01-30T13:09:11;102109.91;;;11.83;98.52
2178;BME280;1095;50.992;6.798;2024-01-30T13:11:38;102104.28;;;11.87;98.39
2178;BME280;1095;50.992;6.798;2024-01-30T13:14:05;102110.63;;;11.85;98.68
2178;BME280;1095;50.992;6.798;2024-01-30T13:16:32;102108.97;;;11.84;98.54
2178;BME280;1095;50.992;6.798;2024-01-30T13:19:00;102108.13;;;11.83;98.99
2178;BME280;1095;50.992;6.798;2024-01-30T13:21:27;102111.47;;;11.85;98.74
2178;BME280;1095;50.992;6.798;2024-01-30T13:23:54;102115.16;;;11.83;98.75
2178;BME280;1095;50.992;6.798;2024-01-30T13:26:21;102108.97;;;11.84;98.57
2178;BME280;1095;50.992;6.798;2024-01-30T13:28:47;102125.94;;;11.80;98.89
2178;BME280;1095;50.992;6.798;2024-01-30T13:31:14;102121.69;;;11.68;99.48
2178;BME280;1095;50.992;6.798;2024-01-30T13:33:41;102118.47;;;11.64;99.79
2178;BME280;1095;50.992;6.798;2024-01-30T13:36:10;102116.56;;;11.66;100.00
2178;BME280;1095;50.992;6.798;2024-01-30T13:38:37;102131.59;;;11.64;100.00
2178;BME280;1095;50.992;6.798;2024-01-30T13:41:04;102120.28;;;11.63;100.00
2178;BME280;1095;50.992;6.798;2024-01-30T13:43:31;102128.72;;;11.67;100.00
2178;BME280;1095;50.992;6.798;2024-01-30T13:45:58;102130.88;;;11.62;100.00
2178;BME280;1095;50.992;6.798;2024-01-30T13:48:25;102127.44;;;11.61;100.00
2178;BME280;1095;50.992;6.798;2024-01-30T13:50:51;102133.53;;;11.51;100.00
2178;BME280;1095;50.992;6.798;2024-01-30T13:53:20;102138.16;;;11.58;100.00